Ida, Louisiana
Current Conditions -  °F | °C
As of 4:53 PM on Friday 31 Oct 2014 (Local Time) from KTXK Reporting Station
Clear Clear  
Wind Chill: 18°   Ceiling: Unl
Heat Index: 18°   Visibility: 10mi
Dew Point:   Wind: 8mph
Humidity: 40%   Direction: 360°N
Pressure: 30.24"   Gusts: NA
Location:  33°N, 93.89°W
Report Text: KTXK 312153Z 36007KT 10SM CLR 18/04 A3024 RMK AO2 SLP236 T01780039
Loading
Personal Weather Stations






























Interactive Weather Map
Tropical Storm Tracking
New forecast layout! Learn more

10-Day Weather Forecast

Advertisements
Track Severe Weather on mobile